sensor_id;sensor_type;location;lat;lon;timestamp;temperature;humidity
57753;DHT22;43583;53.132;6.574;2023-04-24T00:00:06;10.90;99.90
57753;DHT22;43583;53.132;6.574;2023-04-24T00:02:32;10.90;99.90
57753;DHT22;43583;53.132;6.574;2023-04-24T00:04:58;10.90;99.90
57753;DHT22;43583;53.132;6.574;2023-04-24T00:07:28;10.90;99.90
57753;DHT22;43583;53.132;6.574;2023-04-24T00:09:54;10.90;99.90
57753;DHT22;43583;53.132;6.574;2023-04-24T00:12:20;10.90;99.90
57753;DHT22;43583;53.132;6.574;2023-04-24T00:14:45;10.90;99.90
57753;DHT22;43583;53.132;6.574;2023-04-24T00:17:11;10.90;99.90
57753;DHT22;43583;53.132;6.574;2023-04-24T00:19:37;10.90;99.90
57753;DHT22;43583;53.132;6.574;2023-04-24T00:22:02;10.90;99.90
57753;DHT22;43583;53.132;6.574;2023-04-24T00:24:28;10.80;99.90
57753;DHT22;43583;53.132;6.574;2023-04-24T00:26:54;10.70;99.90
57753;DHT22;43583;53.132;6.574;2023-04-24T00:29:20;10.60;99.90
57753;DHT22;43583;53.132;6.574;2023-04-24T00:31:45;10.60;99.90
57753;DHT22;43583;53.132;6.574;2023-04-24T00:34:11;10.50;99.90
57753;DHT22;43583;53.132;6.574;2023-04-24T00:36:37;10.50;99.90
57753;DHT22;43583;53.132;6.574;2023-04-24T00:39:02;10.50;99.90
57753;DHT22;43583;53.132;6.574;2023-04-24T00:41:29;10.50;99.90
57753;DHT22;43583;53.132;6.574;2023-04-24T00:43:54;10.40;99.90
57753;DHT22;43583;53.132;6.574;2023-04-24T00:46:21;10.40;99.90
57753;DHT22;43583;53.132;6.574;2023-04-24T00:48:46;10.40;99.90
57753;DHT22;43583;53.132;6.574;2023-04-24T00:51:12;10.40;99.90
57753;DHT22;43583;53.132;6.574;2023-04-24T00:53:38;10.40;99.90
57753;DHT22;43583;53.132;6.574;2023-04-24T00:56:04;10.40;99.90
57753;DHT22;43583;53.132;6.574;2023-04-24T00:58:30;10.30;99.90
57753;DHT22;43583;53.132;6.574;2023-04-24T01:00:57;10.30;99.90
57753;DHT22;43583;53.132;6.574;2023-04-24T01:03:27;10.20;99.90
57753;DHT22;43583;53.132;6.574;2023-04-24T01:05:54;10.20;99.90
57753;DHT22;43583;53.132;6.574;2023-04-24T01:08:21;10.20;99.90
57753;DHT22;43583;53.132;6.574;2023-04-24T01:10:51;10.20;99.90
57753;DHT22;43583;53.132;6.574;2023-04-24T01:13:18;10.20;99.90
57753;DHT22;43583;53.132;6.574;2023-04-24T01:15:44;10.20;99.90
57753;DHT22;43583;53.132;6.574;2023-04-24T01:18:10;10.20;99.90
57753;DHT22;43583;53.132;6.574;2023-04-24T01:20:37;10.20;99.90
57753;DHT22;43583;53.132;6.574;2023-04-24T01:23:05;10.20;99.90
57753;DHT22;43583;53.132;6.574;2023-04-24T01:25:31;10.20;99.90
57753;DHT22;43583;53.132;6.574;2023-04-24T01:27:57;10.20;99.90
57753;DHT22;43583;53.132;6.574;2023-04-24T01:30:23;10.20;99.90
57753;DHT22;43583;53.132;6.574;2023-04-24T01:32:48;10.20;99.90
57753;DHT22;43583;53.132;6.574;2023-04-24T01:35:14;10.20;99.90
57753;DHT22;43583;53.132;6.574;2023-04-24T01:37:40;10.20;99.90
57753;DHT22;43583;53.132;6.574;2023-04-24T01:40:06;10.20;99.90
57753;DHT22;43583;53.132;6.574;2023-04-24T01:42:32;10.30;99.90
57753;DHT22;43583;53.132;6.574;2023-04-24T01:45:00;10.20;99.90
57753;DHT22;43583;53.132;6.574;2023-04-24T01:47:27;10.20;99.90
57753;DHT22;43583;53.132;6.574;2023-04-24T01:49:53;10.20;99.90
57753;DHT22;43583;53.132;6.574;2023-04-24T01:52:21;10.20;99.90
57753;DHT22;43583;53.132;6.574;2023-04-24T01:54:46;10.20;99.90
57753;DHT22;43583;53.132;6.574;2023-04-24T01:57:13;10.20;99.90
57753;DHT22;43583;53.132;6.574;2023-04-24T01:59:39;10.20;99.90
57753;DHT22;43583;53.132;6.574;2023-04-24T02:02:05;10.20;99.90
57753;DHT22;43583;53.132;6.574;2023-04-24T02:04:31;10.20;99.90
57753;DHT22;43583;53.132;6.574;2023-04-24T02:06:57;10.20;99.90
57753;DHT22;43583;53.132;6.574;2023-04-24T02:09:23;10.20;99.90
57753;DHT22;43583;53.132;6.574;2023-04-24T02:11:48;10.20;99.90
57753;DHT22;43583;53.132;6.574;2023-04-24T02:14:14;10.20;99.90
57753;DHT22;43583;53.132;6.574;2023-04-24T02:16:39;10.20;99.90
57753;DHT22;43583;53.132;6.574;2023-04-24T02:19:05;10.20;99.90
57753;DHT22;43583;53.132;6.574;2023-04-24T02:21:30;10.20;99.90
57753;DHT22;43583;53.132;6.574;2023-04-24T02:23:57;10.20;99.90
57753;DHT22;43583;53.132;6.574;2023-04-24T02:26:23;10.20;99.90
57753;DHT22;43583;53.132;6.574;2023-04-24T02:28:48;10.30;99.90
57753;DHT22;43583;53.132;6.574;2023-04-24T02:31:14;10.30;99.90
57753;DHT22;43583;53.132;6.574;2023-04-24T02:33:40;10.30;99.90
57753;DHT22;43583;53.132;6.574;2023-04-24T02:36:06;10.30;99.90
57753;DHT22;43583;53.132;6.574;2023-04-24T02:38:31;10.30;99.90
57753;DHT22;43583;53.132;6.574;2023-04-24T02:40:57;10.30;99.90
57753;DHT22;43583;53.132;6.574;2023-04-24T02:43:22;10.30;99.90
57753;DHT22;43583;53.132;6.574;2023-04-24T02:45:48;10.30;99.90
57753;DHT22;43583;53.132;6.574;2023-04-24T02:48:14;10.30;99.90
57753;DHT22;43583;53.132;6.574;2023-04-24T02:50:40;10.30;99.90
57753;DHT22;43583;53.132;6.574;2023-04-24T02:53:05;10.30;99.90
57753;DHT22;43583;53.132;6.574;2023-04-24T02:55:31;10.30;99.90
57753;DHT22;43583;53.132;6.574;2023-04-24T02:57:57;10.30;99.90
57753;DHT22;43583;53.132;6.574;2023-04-24T03:00:22;10.30;99.90
57753;DHT22;43583;53.132;6.574;2023-04-24T03:02:48;10.30;99.90
57753;DHT22;43583;53.132;6.574;2023-04-24T03:05:14;10.30;99.90
57753;DHT22;43583;53.132;6.574;2023-04-24T03:07:40;10.30;99.90
57753;DHT22;43583;53.132;6.574;2023-04-24T03:10:06;10.30;99.90
57753;DHT22;43583;53.132;6.574;2023-04-24T03:12:32;10.30;99.90
57753;DHT22;43583;53.132;6.574;2023-04-24T03:14:58;10.30;99.90
57753;DHT22;43583;53.132;6.574;2023-04-24T03:17:23;10.30;99.90
57753;DHT22;43583;53.132;6.574;2023-04-24T03:19:49;10.30;99.90
57753;DHT22;43583;53.132;6.574;2023-04-24T03:22:14;10.30;99.90
57753;DHT22;43583;53.132;6.574;2023-04-24T03:24:40;10.30;99.90
57753;DHT22;43583;53.132;6.574;2023-04-24T03:27:05;10.30;99.90
57753;DHT22;43583;53.132;6.574;2023-04-24T03:29:31;10.30;99.90
57753;DHT22;43583;53.132;6.574;2023-04-24T03:31:56;10.30;99.90
57753;DHT22;43583;53.132;6.574;2023-04-24T03:34:22;10.30;99.90
57753;DHT22;43583;53.132;6.574;2023-04-24T03:36:47;10.30;99.90
57753;DHT22;43583;53.132;6.574;2023-04-24T03:39:13;10.30;99.90
57753;DHT22;43583;53.132;6.574;2023-04-24T03:41:39;10.20;99.90
57753;DHT22;43583;53.132;6.574;2023-04-24T03:44:04;10.20;99.90
57753;DHT22;43583;53.132;6.574;2023-04-24T03:46:30;10.20;99.90
57753;DHT22;43583;53.132;6.574;2023-04-24T03:48:55;10.20;99.90
57753;DHT22;43583;53.132;6.574;2023-04-24T03:51:21;10.20;99.90
57753;DHT22;43583;53.132;6.574;2023-04-24T03:53:47;10.20;99.90
57753;DHT22;43583;53.132;6.574;2023-04-24T03:56:12;10.20;99.90
57753;DHT22;43583;53.132;6.574;2023-04-24T03:58:38;10.20;99.90
57753;DHT22;43583;53.132;6.574;2023-04-24T04:01:03;10.20;99.90
57753;DHT22;43583;53.132;6.574;2023-04-24T04:03:29;10.10;99.90
57753;DHT22;43583;53.132;6.574;2023-04-24T04:05:55;10.20;99.90
57753;DHT22;43583;53.132;6.574;2023-04-24T04:08:20;10.20;99.90
57753;DHT22;43583;53.132;6.574;2023-04-24T04:10:46;10.10;99.90
57753;DHT22;43583;53.132;6.574;2023-04-24T04:13:11;10.20;99.90
57753;DHT22;43583;53.132;6.574;2023-04-24T04:15:37;10.10;99.90
57753;DHT22;43583;53.132;6.574;2023-04-24T04:18:03;10.10;99.90
57753;DHT22;43583;53.132;6.574;2023-04-24T04:20:28;10.10;99.90
57753;DHT22;43583;53.132;6.574;2023-04-24T04:22:54;10.10;99.90
57753;DHT22;43583;53.132;6.574;2023-04-24T04:25:19;10.10;99.90
57753;DHT22;43583;53.132;6.574;2023-04-24T04:27:46;10.10;99.90
57753;DHT22;43583;53.132;6.574;2023-04-24T04:30:13;10.10;99.90
57753;DHT22;43583;53.132;6.574;2023-04-24T04:32:38;10.10;99.90
57753;DHT22;43583;53.132;6.574;2023-04-24T04:35:04;10.10;99.90
57753;DHT22;43583;53.132;6.574;2023-04-24T04:37:31;10.10;99.90
57753;DHT22;43583;53.132;6.574;2023-04-24T04:39:57;10.10;99.90
57753;DHT22;43583;53.132;6.574;2023-04-24T04:42:24;10.10;99.90
57753;DHT22;43583;53.132;6.574;2023-04-24T04:44:50;10.10;99.90
57753;DHT22;43583;53.132;6.574;2023-04-24T04:47:16;10.10;99.90
57753;DHT22;43583;53.132;6.574;2023-04-24T04:49:43;10.10;99.90
57753;DHT22;43583;53.132;6.574;2023-04-24T04:52:09;10.10;99.90
57753;DHT22;43583;53.132;6.574;2023-04-24T04:54:35;10.10;99.90
57753;DHT22;43583;53.132;6.574;2023-04-24T04:57:00;10.10;99.90
57753;DHT22;43583;53.132;6.574;2023-04-24T04:59:27;10.10;99.90
57753;DHT22;43583;53.132;6.574;2023-04-24T05:01:52;10.10;99.90
57753;DHT22;43583;53.132;6.574;2023-04-24T05:04:18;10.10;99.90
57753;DHT22;43583;53.132;6.574;2023-04-24T05:06:44;10.10;99.90
57753;DHT22;43583;53.132;6.574;2023-04-24T05:09:10;10.10;99.90
57753;DHT22;43583;53.132;6.574;2023-04-24T05:11:35;10.10;99.90
57753;DHT22;43583;53.132;6.574;2023-04-24T05:14:01;10.10;99.90
57753;DHT22;43583;53.132;6.574;2023-04-24T05:16:27;10.10;99.90
57753;DHT22;43583;53.132;6.574;2023-04-24T05:18:52;10.10;99.90
57753;DHT22;43583;53.132;6.574;2023-04-24T05:21:18;10.10;99.90
57753;DHT22;43583;53.132;6.574;2023-04-24T05:23:43;10.10;99.90
57753;DHT22;43583;53.132;6.574;2023-04-24T05:26:09;10.10;99.90
57753;DHT22;43583;53.132;6.574;2023-04-24T05:28:34;10.10;99.90
57753;DHT22;43583;53.132;6.574;2023-04-24T05:31:02;10.20;99.90
57753;DHT22;43583;53.132;6.574;2023-04-24T05:33:27;10.20;99.90
57753;DHT22;43583;53.132;6.574;2023-04-24T05:35:53;10.20;99.90
57753;DHT22;43583;53.132;6.574;2023-04-24T05:38:19;10.20;99.90
57753;DHT22;43583;53.132;6.574;2023-04-24T05:40:45;10.20;99.90
57753;DHT22;43583;53.132;6.574;2023-04-24T05:43:11;10.30;99.90
57753;DHT22;43583;53.132;6.574;2023-04-24T05:45:38;10.30;99.90
57753;DHT22;43583;53.132;6.574;2023-04-24T05:48:03;10.40;99.90
57753;DHT22;43583;53.132;6.574;2023-04-24T05:50:29;10.40;99.90
57753;DHT22;43583;53.132;6.574;2023-04-24T05:52:55;10.40;99.90
57753;DHT22;43583;53.132;6.574;2023-04-24T05:55:24;10.50;99.90
57753;DHT22;43583;53.132;6.574;2023-04-24T05:57:49;10.50;99.90
57753;DHT22;43583;53.132;6.574;2023-04-24T06:00:15;10.50;99.90
57753;DHT22;43583;53.132;6.574;2023-04-24T06:02:41;10.50;99.90
57753;DHT22;43583;53.132;6.574;2023-04-24T06:05:07;10.50;99.90
57753;DHT22;43583;53.132;6.574;2023-04-24T06:07:33;10.50;99.90
57753;DHT22;43583;53.132;6.574;2023-04-24T06:09:59;10.50;99.90
57753;DHT22;43583;53.132;6.574;2023-04-24T06:12:25;10.50;99.90
57753;DHT22;43583;53.132;6.574;2023-04-24T06:14:51;10.40;99.90
57753;DHT22;43583;53.132;6.574;2023-04-24T06:17:17;10.50;99.90
57753;DHT22;43583;53.132;6.574;2023-04-24T06:19:43;10.50;99.90
57753;DHT22;43583;53.132;6.574;2023-04-24T06:22:08;10.40;99.90
57753;DHT22;43583;53.132;6.574;2023-04-24T06:24:35;10.40;99.90
57753;DHT22;43583;53.132;6.574;2023-04-24T06:27:00;10.50;99.90
57753;DHT22;43583;53.132;6.574;2023-04-24T06:29:27;10.50;99.90
57753;DHT22;43583;53.132;6.574;2023-04-24T06:31:52;10.50;99.90
57753;DHT22;43583;53.132;6.574;2023-04-24T06:34:18;10.40;99.90
57753;DHT22;43583;53.132;6.574;2023-04-24T06:36:44;10.40;99.90
57753;DHT22;43583;53.132;6.574;2023-04-24T06:39:09;10.50;99.90
57753;DHT22;43583;53.132;6.574;2023-04-24T06:41:35;10.40;99.90
57753;DHT22;43583;53.132;6.574;2023-04-24T06:44:01;10.50;99.90
57753;DHT22;43583;53.132;6.574;2023-04-24T06:46:27;10.50;99.90
57753;DHT22;43583;53.132;6.574;2023-04-24T06:48:53;10.50;99.90
57753;DHT22;43583;53.132;6.574;2023-04-24T06:51:23;10.50;99.90
57753;DHT22;43583;53.132;6.574;2023-04-24T06:53:49;10.50;99.90
57753;DHT22;43583;53.132;6.574;2023-04-24T06:56:15;10.50;99.90
57753;DHT22;43583;53.132;6.574;2023-04-24T06:58:41;10.50;99.90
57753;DHT22;43583;53.132;6.574;2023-04-24T07:01:07;10.50;99.90
57753;DHT22;43583;53.132;6.574;2023-04-24T07:03:32;10.40;99.90
57753;DHT22;43583;53.132;6.574;2023-04-24T07:05:58;10.40;99.90
57753;DHT22;43583;53.132;6.574;2023-04-24T07:08:23;10.40;99.90
57753;DHT22;43583;53.132;6.574;2023-04-24T07:10:50;10.40;99.90
57753;DHT22;43583;53.132;6.574;2023-04-24T07:13:16;10.50;99.90
57753;DHT22;43583;53.132;6.574;2023-04-24T07:15:42;10.50;99.90
57753;DHT22;43583;53.132;6.574;2023-04-24T07:18:08;10.50;99.90
57753;DHT22;43583;53.132;6.574;2023-04-24T07:20:34;10.60;99.90
57753;DHT22;43583;53.132;6.574;2023-04-24T07:23:00;10.60;99.90
57753;DHT22;43583;53.132;6.574;2023-04-24T07:25:25;10.60;99.90
57753;DHT22;43583;53.132;6.574;2023-04-24T07:27:51;10.70;99.90
57753;DHT22;43583;53.132;6.574;2023-04-24T07:30:17;10.70;99.90
57753;DHT22;43583;53.132;6.574;2023-04-24T07:32:43;10.70;99.90
57753;DHT22;43583;53.132;6.574;2023-04-24T07:35:08;10.70;99.90
57753;DHT22;43583;53.132;6.574;2023-04-24T07:37:35;10.60;99.90
57753;DHT22;43583;53.132;6.574;2023-04-24T07:40:01;10.60;99.90
57753;DHT22;43583;53.132;6.574;2023-04-24T07:42:27;10.50;99.90
57753;DHT22;43583;53.132;6.574;2023-04-24T07:44:53;10.50;99.90
57753;DHT22;43583;53.132;6.574;2023-04-24T07:47:19;10.50;99.90
57753;DHT22;43583;53.132;6.574;2023-04-24T07:49:44;10.50;99.90
57753;DHT22;43583;53.132;6.574;2023-04-24T07:52:10;10.40;99.90
57753;DHT22;43583;53.132;6.574;2023-04-24T07:54:35;10.30;99.90
57753;DHT22;43583;53.132;6.574;2023-04-24T07:57:03;10.30;99.90
57753;DHT22;43583;53.132;6.574;2023-04-24T07:59:28;10.30;99.90
57753;DHT22;43583;53.132;6.574;2023-04-24T08:01:54;10.40;99.90
57753;DHT22;43583;53.132;6.574;2023-04-24T08:04:20;10.30;99.90
57753;DHT22;43583;53.132;6.574;2023-04-24T08:06:47;10.30;99.90
57753;DHT22;43583;53.132;6.574;2023-04-24T08:09:13;10.30;99.90
57753;DHT22;43583;53.132;6.574;2023-04-24T08:11:38;10.20;99.90
57753;DHT22;43583;53.132;6.574;2023-04-24T08:14:04;10.10;99.90
57753;DHT22;43583;53.132;6.574;2023-04-24T08:16:29;10.20;99.90
57753;DHT22;43583;53.132;6.574;2023-04-24T08:18:55;10.20;99.90
57753;DHT22;43583;53.132;6.574;2023-04-24T08:21:20;10.10;99.90
57753;DHT22;43583;53.132;6.574;2023-04-24T08:23:46;10.10;99.90
57753;DHT22;43583;53.132;6.574;2023-04-24T08:26:12;10.00;99.90
57753;DHT22;43583;53.132;6.574;2023-04-24T08:28:38;10.00;99.90
57753;DHT22;43583;53.132;6.574;2023-04-24T08:31:04;9.90;99.90
57753;DHT22;43583;53.132;6.574;2023-04-24T08:33:30;9.90;99.90
57753;DHT22;43583;53.132;6.574;2023-04-24T08:36:03;9.90;99.90
57753;DHT22;43583;53.132;6.574;2023-04-24T08:38:29;9.90;99.90
57753;DHT22;43583;53.132;6.574;2023-04-24T08:40:58;9.80;99.90
57753;DHT22;43583;53.132;6.574;2023-04-24T08:43:23;9.80;99.90
57753;DHT22;43583;53.132;6.574;2023-04-24T08:45:50;9.80;99.90
57753;DHT22;43583;53.132;6.574;2023-04-24T08:48:16;9.70;99.90
57753;DHT22;43583;53.132;6.574;2023-04-24T08:50:42;9.70;99.90
57753;DHT22;43583;53.132;6.574;2023-04-24T08:53:10;9.70;99.90
57753;DHT22;43583;53.132;6.574;2023-04-24T08:55:37;9.60;99.90
57753;DHT22;43583;53.132;6.574;2023-04-24T08:58:03;9.60;99.90
57753;DHT22;43583;53.132;6.574;2023-04-24T09:00:29;9.60;99.90
57753;DHT22;43583;53.132;6.574;2023-04-24T09:02:55;9.50;99.90
57753;DHT22;43583;53.132;6.574;2023-04-24T09:05:22;9.50;99.90
57753;DHT22;43583;53.132;6.574;2023-04-24T09:07:54;9.50;99.90
57753;DHT22;43583;53.132;6.574;2023-04-24T09:10:21;9.40;99.90
57753;DHT22;43583;53.132;6.574;2023-04-24T09:12:47;9.40;99.90
57753;DHT22;43583;53.132;6.574;2023-04-24T09:15:13;9.40;99.90
57753;DHT22;43583;53.132;6.574;2023-04-24T09:17:39;9.40;99.90
57753;DHT22;43583;53.132;6.574;2023-04-24T09:20:05;9.40;99.90
57753;DHT22;43583;53.132;6.574;2023-04-24T09:22:31;9.40;99.90
57753;DHT22;43583;53.132;6.574;2023-04-24T09:25:03;9.40;99.90
57753;DHT22;43583;53.132;6.574;2023-04-24T09:27:29;9.40;99.90
57753;DHT22;43583;53.132;6.574;2023-04-24T09:29:57;9.40;99.90
57753;DHT22;43583;53.132;6.574;2023-04-24T09:32:23;9.40;99.90
57753;DHT22;43583;53.132;6.574;2023-04-24T09:35:11;9.40;99.90
57753;DHT22;43583;53.132;6.574;2023-04-24T09:37:41;9.40;99.90
57753;DHT22;43583;53.132;6.574;2023-04-24T09:40:13;9.50;99.90
57753;DHT22;43583;53.132;6.574;2023-04-24T09:42:40;9.50;99.90
57753;DHT22;43583;53.132;6.574;2023-04-24T09:45:09;9.50;99.90
57753;DHT22;43583;53.132;6.574;2023-04-24T09:47:37;9.50;99.90
57753;DHT22;43583;53.132;6.574;2023-04-24T09:50:13;9.40;99.90
57753;DHT22;43583;53.132;6.574;2023-04-24T09:52:46;9.40;99.90
57753;DHT22;43583;53.132;6.574;2023-04-24T09:55:20;9.40;99.90
57753;DHT22;43583;53.132;6.574;2023-04-24T09:57:59;9.40;99.90
57753;DHT22;43583;53.132;6.574;2023-04-24T10:00:33;9.50;99.90
57753;DHT22;43583;53.132;6.574;2023-04-24T10:03:03;9.50;99.90
57753;DHT22;43583;53.132;6.574;2023-04-24T10:05:32;9.60;99.90
57753;DHT22;43583;53.132;6.574;2023-04-24T10:08:08;9.80;99.90
57753;DHT22;43583;53.132;6.574;2023-04-24T10:10:38;9.90;99.90
57753;DHT22;43583;53.132;6.574;2023-04-24T10:13:04;10.00;99.90
57753;DHT22;43583;53.132;6.574;2023-04-24T10:15:30;10.10;99.90
57753;DHT22;43583;53.132;6.574;2023-04-24T10:17:58;10.20;99.90
57753;DHT22;43583;53.132;6.574;2023-04-24T10:20:26;10.30;99.90
57753;DHT22;43583;53.132;6.574;2023-04-24T10:22:54;10.30;99.90
57753;DHT22;43583;53.132;6.574;2023-04-24T10:25:24;10.50;99.90
57753;DHT22;43583;53.132;6.574;2023-04-24T10:27:51;10.60;99.90
57753;DHT22;43583;53.132;6.574;2023-04-24T10:30:18;10.70;99.90
57753;DHT22;43583;53.132;6.574;2023-04-24T10:32:45;10.70;99.90
57753;DHT22;43583;53.132;6.574;2023-04-24T10:35:15;10.80;99.90
57753;DHT22;43583;53.132;6.574;2023-04-24T10:38:03;10.90;99.90
57753;DHT22;43583;53.132;6.574;2023-04-24T10:40:33;10.80;99.90
57753;DHT22;43583;53.132;6.574;2023-04-24T10:43:03;10.70;99.90
57753;DHT22;43583;53.132;6.574;2023-04-24T10:45:33;10.70;99.90
57753;DHT22;43583;53.132;6.574;2023-04-24T10:48:06;10.70;99.90
57753;DHT22;43583;53.132;6.574;2023-04-24T10:50:53;10.60;99.90
57753;DHT22;43583;53.132;6.574;2023-04-24T10:53:23;10.60;99.90
57753;DHT22;43583;53.132;6.574;2023-04-24T10:56:04;10.60;99.90
57753;DHT22;43583;53.132;6.574;2023-04-24T10:58:39;10.60;99.90
57753;DHT22;43583;53.132;6.574;2023-04-24T11:01:06;10.60;99.90
57753;DHT22;43583;53.132;6.574;2023-04-24T11:03:34;10.60;99.90
57753;DHT22;43583;53.132;6.574;2023-04-24T11:08:42;10.60;99.90
57753;DHT22;43583;53.132;6.574;2023-04-24T11:11:10;10.70;99.90
57753;DHT22;43583;53.132;6.574;2023-04-24T11:16:28;10.80;99.90
57753;DHT22;43583;53.132;6.574;2023-04-24T11:19:02;10.70;99.90
57753;DHT22;43583;53.132;6.574;2023-04-24T11:21:32;10.70;99.90
57753;DHT22;43583;53.132;6.574;2023-04-24T11:24:30;10.60;99.90
57753;DHT22;43583;53.132;6.574;2023-04-24T11:27:16;10.60;99.90
57753;DHT22;43583;53.132;6.574;2023-04-24T11:30:00;10.50;99.90
57753;DHT22;43583;53.132;6.574;2023-04-24T11:34:59;10.50;99.90
57753;DHT22;43583;53.132;6.574;2023-04-24T11:37:35;10.40;99.90
57753;DHT22;43583;53.132;6.574;2023-04-24T11:40:04;10.30;99.90
57753;DHT22;43583;53.132;6.574;2023-04-24T11:42:42;10.30;99.90
57753;DHT22;43583;53.132;6.574;2023-04-24T11:45:12;10.20;99.90
57753;DHT22;43583;53.132;6.574;2023-04-24T11:47:38;10.30;99.90
57753;DHT22;43583;53.132;6.574;2023-04-24T11:50:07;10.30;99.90
57753;DHT22;43583;53.132;6.574;2023-04-24T11:52:36;10.40;99.90
57753;DHT22;43583;53.132;6.574;2023-04-24T11:55:02;10.40;99.90
57753;DHT22;43583;53.132;6.574;2023-04-24T11:57:29;10.40;99.90
57753;DHT22;43583;53.132;6.574;2023-04-24T12:00:00;10.30;99.90
57753;DHT22;43583;53.132;6.574;2023-04-24T12:02:27;10.30;99.90
57753;DHT22;43583;53.132;6.574;2023-04-24T12:04:53;10.20;99.90
57753;DHT22;43583;53.132;6.574;2023-04-24T12:07:19;10.10;99.90
57753;DHT22;43583;53.132;6.574;2023-04-24T12:09:47;10.10;99.90
57753;DHT22;43583;53.132;6.574;2023-04-24T12:12:15;10.00;99.90
57753;DHT22;43583;53.132;6.574;2023-04-24T12:14:49;9.90;99.90
57753;DHT22;43583;53.132;6.574;2023-04-24T12:17:16;9.90;99.90
57753;DHT22;43583;53.132;6.574;2023-04-24T12:19:46;9.80;99.90
57753;DHT22;43583;53.132;6.574;2023-04-24T12:22:12;9.80;99.90
57753;DHT22;43583;53.132;6.574;2023-04-24T12:24:59;9.80;99.90
57753;DHT22;43583;53.132;6.574;2023-04-24T12:27:26;9.90;99.90
57753;DHT22;43583;53.132;6.574;2023-04-24T12:29:55;10.00;99.90
57753;DHT22;43583;53.132;6.574;2023-04-24T12:32:22;10.20;99.90
57753;DHT22;43583;53.132;6.574;2023-04-24T12:34:49;10.40;99.90
57753;DHT22;43583;53.132;6.574;2023-04-24T12:37:15;10.60;99.90
57753;DHT22;43583;53.132;6.574;2023-04-24T12:40:06;10.70;99.90
57753;DHT22;43583;53.132;6.574;2023-04-24T12:42:34;10.70;99.90
57753;DHT22;43583;53.132;6.574;2023-04-24T12:45:09;10.60;99.90
57753;DHT22;43583;53.132;6.574;2023-04-24T12:47:37;10.60;99.90
57753;DHT22;43583;53.132;6.574;2023-04-24T12:50:03;10.50;99.90
57753;DHT22;43583;53.132;6.574;2023-04-24T12:52:30;10.50;99.90
57753;DHT22;43583;53.132;6.574;2023-04-24T12:55:00;10.50;99.90
57753;DHT22;43583;53.132;6.574;2023-04-24T12:57:27;10.60;99.90
57753;DHT22;43583;53.132;6.574;2023-04-24T12:59:58;10.80;99.90
57753;DHT22;43583;53.132;6.574;2023-04-24T13:02:28;10.90;99.90
57753;DHT22;43583;53.132;6.574;2023-04-24T13:04:55;11.10;99.90
57753;DHT22;43583;53.132;6.574;2023-04-24T13:07:21;11.10;99.90
57753;DHT22;43583;53.132;6.574;2023-04-24T13:09:48;11.00;99.90
57753;DHT22;43583;53.132;6.574;2023-04-24T13:12:14;10.90;99.90
57753;DHT22;43583;53.132;6.574;2023-04-24T13:14:40;10.70;99.90
57753;DHT22;43583;53.132;6.574;2023-04-24T13:17:06;10.60;99.90
57753;DHT22;43583;53.132;6.574;2023-04-24T13:19:37;10.50;99.90
57753;DHT22;43583;53.132;6.574;2023-04-24T13:22:03;10.40;99.90
57753;DHT22;43583;53.132;6.574;2023-04-24T13:24:29;10.40;99.90
57753;DHT22;43583;53.132;6.574;2023-04-24T13:26:54;10.50;99.90
57753;DHT22;43583;53.132;6.574;2023-04-24T13:29:22;10.60;99.90
57753;DHT22;43583;53.132;6.574;2023-04-24T13:31:50;10.60;99.90
57753;DHT22;43583;53.132;6.574;2023-04-24T13:34:17;10.70;99.90
57753;DHT22;43583;53.132;6.574;2023-04-24T13:36:43;10.70;99.90
57753;DHT22;43583;53.132;6.574;2023-04-24T13:39:09;10.70;99.90
57753;DHT22;43583;53.132;6.574;2023-04-24T13:41:35;10.70;99.90
57753;DHT22;43583;53.132;6.574;2023-04-24T13:44:02;10.70;99.90
57753;DHT22;43583;53.132;6.574;2023-04-24T13:46:28;10.70;99.90
57753;DHT22;43583;53.132;6.574;2023-04-24T13:48:53;10.70;99.90
57753;DHT22;43583;53.132;6.574;2023-04-24T13:51:19;10.60;99.90
57753;DHT22;43583;53.132;6.574;2023-04-24T13:53:45;10.60;99.90
57753;DHT22;43583;53.132;6.574;2023-04-24T13:56:10;10.60;99.90
57753;DHT22;43583;53.132;6.574;2023-04-24T13:58:37;10.50;99.90
57753;DHT22;43583;53.132;6.574;2023-04-24T14:01:03;10.40;99.90
57753;DHT22;43583;53.132;6.574;2023-04-24T14:03:29;10.50;99.90
57753;DHT22;43583;53.132;6.574;2023-04-24T14:05:55;10.50;99.90
57753;DHT22;43583;53.132;6.574;2023-04-24T14:08:21;10.50;99.90
57753;DHT22;43583;53.132;6.574;2023-04-24T14:10:46;10.30;99.90
57753;DHT22;43583;53.132;6.574;2023-04-24T14:13:12;10.20;99.90
57753;DHT22;43583;53.132;6.574;2023-04-24T14:15:38;10.10;99.90
57753;DHT22;43583;53.132;6.574;2023-04-24T14:18:04;9.90;99.90
57753;DHT22;43583;53.132;6.574;2023-04-24T14:20:30;9.90;99.90
57753;DHT22;43583;53.132;6.574;2023-04-24T14:22:59;9.80;99.90
57753;DHT22;43583;53.132;6.574;2023-04-24T14:25:25;9.80;99.90
57753;DHT22;43583;53.132;6.574;2023-04-24T14:27:50;9.80;99.90
57753;DHT22;43583;53.132;6.574;2023-04-24T14:30:16;9.70;99.90
57753;DHT22;43583;53.132;6.574;2023-04-24T14:32:42;9.70;99.90
57753;DHT22;43583;53.132;6.574;2023-04-24T14:35:08;9.60;99.90
57753;DHT22;43583;53.132;6.574;2023-04-24T14:37:34;9.60;99.90
57753;DHT22;43583;53.132;6.574;2023-04-24T14:40:00;9.60;99.90
57753;DHT22;43583;53.132;6.574;2023-04-24T14:42:25;9.70;99.90
57753;DHT22;43583;53.132;6.574;2023-04-24T14:44:51;9.90;99.90
57753;DHT22;43583;53.132;6.574;2023-04-24T14:47:16;9.90;99.90
57753;DHT22;43583;53.132;6.574;2023-04-24T14:49:47;10.00;99.90
57753;DHT22;43583;53.132;6.574;2023-04-24T14:52:13;9.90;99.90
57753;DHT22;43583;53.132;6.574;2023-04-24T14:54:39;9.80;99.90
57753;DHT22;43583;53.132;6.574;2023-04-24T14:57:04;9.90;99.90
57753;DHT22;43583;53.132;6.574;2023-04-24T14:59:30;10.00;99.90
57753;DHT22;43583;53.132;6.574;2023-04-24T15:01:57;10.00;99.90
57753;DHT22;43583;53.132;6.574;2023-04-24T15:04:27;9.90;99.90
57753;DHT22;43583;53.132;6.574;2023-04-24T15:06:53;10.00;99.90
57753;DHT22;43583;53.132;6.574;2023-04-24T15:09:22;9.90;99.90
57753;DHT22;43583;53.132;6.574;2023-04-24T15:11:49;9.90;99.90
57753;DHT22;43583;53.132;6.574;2023-04-24T15:14:16;9.90;99.90
57753;DHT22;43583;53.132;6.574;2023-04-24T15:16:41;9.90;99.90
57753;DHT22;43583;53.132;6.574;2023-04-24T15:19:08;9.80;99.90
57753;DHT22;43583;53.132;6.574;2023-04-24T15:21:35;9.80;99.90
57753;DHT22;43583;53.132;6.574;2023-04-24T15:24:00;9.90;99.90
57753;DHT22;43583;53.132;6.574;2023-04-24T15:26:26;9.90;99.90
57753;DHT22;43583;53.132;6.574;2023-04-24T15:28:52;9.80;99.90
57753;DHT22;43583;53.132;6.574;2023-04-24T15:31:18;9.70;99.90
57753;DHT22;43583;53.132;6.574;2023-04-24T15:33:44;9.70;99.90
57753;DHT22;43583;53.132;6.574;2023-04-24T15:36:11;9.70;99.90
57753;DHT22;43583;53.132;6.574;2023-04-24T15:38:37;9.80;99.90
57753;DHT22;43583;53.132;6.574;2023-04-24T15:41:03;9.80;99.90